createdAt,value
2022-11-01T00:01:40.137Z,14.70
2022-11-01T00:04:08.880Z,14.70
2022-11-01T00:06:36.753Z,14.60
2022-11-01T00:09:04.832Z,14.60
2022-11-01T00:11:32.278Z,14.50
2022-11-01T00:13:59.674Z,14.30
2022-11-01T00:16:27.204Z,14.30
2022-11-01T00:18:54.662Z,14.50
2022-11-01T00:21:22.214Z,14.50
2022-11-01T00:23:49.731Z,14.40
2022-11-01T00:26:22.521Z,14.40
2022-11-01T00:28:50.415Z,14.50
2022-11-01T00:31:18.536Z,14.40
2022-11-01T00:33:46.121Z,14.50
2022-11-01T00:36:13.717Z,14.40
2022-11-01T00:38:41.181Z,14.30
2022-11-01T00:41:08.652Z,14.00
2022-11-01T00:43:36.764Z,14.00
2022-11-01T00:46:04.721Z,14.00
2022-11-01T00:48:32.505Z,14.00
2022-11-01T00:50:59.904Z,13.70
2022-11-01T00:53:27.380Z,13.80
2022-11-01T00:55:59.938Z,13.70
2022-11-01T00:58:27.355Z,13.60
2022-11-01T01:00:54.874Z,13.60
2022-11-01T01:03:22.605Z,13.70
2022-11-01T01:05:51.231Z,13.60
2022-11-01T01:08:18.781Z,13.60
2022-11-01T01:10:46.590Z,13.60
2022-11-01T01:13:14.128Z,13.60
2022-11-01T01:15:41.481Z,13.50
2022-11-01T01:18:08.881Z,13.40
2022-11-01T01:20:36.689Z,13.50
2022-11-01T01:23:04.197Z,13.50
2022-11-01T01:25:31.630Z,13.40
2022-11-01T01:27:59.201Z,13.30
2022-11-01T01:30:26.728Z,13.40
2022-11-01T01:32:54.169Z,13.40
2022-11-01T01:35:21.588Z,13.40
2022-11-01T01:37:49.076Z,13.50
2022-11-01T01:40:16.558Z,13.60
2022-11-01T01:42:44.082Z,13.30
2022-11-01T01:45:11.466Z,13.20
2022-11-01T01:47:40.498Z,13.20
2022-11-01T01:50:37.526Z,13.10
2022-11-01T01:53:07.926Z,12.90
2022-11-01T01:55:35.620Z,13.00
2022-11-01T01:58:03.042Z,13.00
2022-11-01T02:00:30.510Z,13.20
2022-11-01T02:02:58.215Z,13.20
2022-11-01T02:05:44.881Z,13.00
2022-11-01T02:08:12.932Z,13.00
2022-11-01T02:10:41.109Z,13.00
2022-11-01T02:13:15.074Z,12.90
2022-11-01T02:15:48.655Z,12.90
2022-11-01T02:18:21.051Z,12.80
2022-11-01T02:20:57.173Z,12.70
2022-11-01T02:23:24.550Z,12.70
2022-11-01T02:26:10.842Z,12.90
2022-11-01T02:29:05.814Z,13.00
2022-11-01T02:31:51.937Z,13.10
2022-11-01T02:34:23.311Z,12.90
2022-11-01T02:36:58.394Z,12.80
2022-11-01T02:39:36.303Z,12.90
2022-11-01T02:42:07.437Z,13.10
2022-11-01T02:44:37.365Z,12.90
2022-11-01T02:47:06.161Z,12.80
2022-11-01T02:49:36.008Z,12.90
2022-11-01T02:52:04.102Z,13.00
2022-11-01T02:54:32.726Z,13.10
2022-11-01T02:57:03.548Z,12.90
2022-11-01T02:59:30.999Z,13.00
2022-11-01T03:02:07.116Z,13.10
2022-11-01T03:04:35.345Z,13.10
2022-11-01T03:07:04.964Z,13.10
2022-11-01T03:09:33.236Z,13.00
2022-11-01T03:12:22.395Z,13.00
2022-11-01T03:14:53.539Z,13.00
2022-11-01T03:17:20.940Z,12.90
2022-11-01T03:19:51.472Z,12.90
2022-11-01T03:22:29.152Z,12.90
2022-11-01T03:25:34.084Z,12.80
2022-11-01T03:28:04.022Z,12.50
2022-11-01T03:30:33.308Z,12.30
2022-11-01T03:33:00.916Z,12.40
2022-11-01T03:35:35.036Z,12.60
2022-11-01T03:38:05.431Z,12.70
2022-11-01T03:40:34.471Z,12.60
2022-11-01T03:43:04.560Z,12.50
2022-11-01T03:45:34.340Z,12.60
2022-11-01T03:48:02.041Z,12.80
2022-11-01T03:50:29.834Z,12.80
2022-11-01T03:52:57.523Z,12.70
2022-11-01T03:55:25.303Z,12.60
2022-11-01T03:57:54.115Z,12.60
2022-11-01T04:00:23.180Z,12.20
2022-11-01T04:02:51.420Z,12.10
2022-11-01T04:05:19.600Z,12.30
2022-11-01T04:07:47.100Z,12.40
2022-11-01T04:10:15.248Z,12.60
2022-11-01T04:12:44.783Z,12.50
2022-11-01T04:15:30.852Z,12.50
2022-11-01T04:18:26.054Z,12.60
2022-11-01T04:20:53.996Z,12.70
2022-11-01T04:23:21.657Z,12.60
2022-11-01T04:25:49.113Z,12.60
2022-11-01T04:28:16.553Z,12.50
2022-11-01T04:30:44.101Z,12.50
2022-11-01T04:33:11.596Z,12.50
2022-11-01T04:35:39.248Z,12.50
2022-11-01T04:38:07.056Z,12.50
2022-11-01T04:40:34.787Z,12.50
2022-11-01T04:43:02.189Z,12.50
2022-11-01T04:45:29.620Z,12.40
2022-11-01T04:48:13.848Z,12.20
2022-11-01T04:50:42.137Z,12.40
2022-11-01T04:53:11.645Z,12.30
2022-11-01T04:55:39.286Z,12.30
2022-11-01T04:58:10.926Z,12.20
2022-11-01T05:00:38.703Z,12.20
2022-11-01T05:03:07.271Z,12.20
2022-11-01T05:05:35.153Z,12.00
2022-11-01T05:08:03.805Z,12.00
2022-11-01T05:10:31.694Z,11.90
2022-11-01T05:12:59.468Z,11.80
2022-11-01T05:15:27.187Z,11.80
2022-11-01T05:17:54.670Z,11.60
2022-11-01T05:20:22.273Z,11.70
2022-11-01T05:22:49.645Z,11.70
2022-11-01T05:25:18.133Z,11.70
2022-11-01T05:27:45.580Z,11.90
2022-11-01T05:30:13.223Z,11.80
2022-11-01T05:32:40.810Z,11.70
2022-11-01T05:35:08.357Z,11.80
2022-11-01T05:37:36.059Z,12.00
2022-11-01T05:40:04.232Z,12.10
2022-11-01T05:42:31.606Z,12.10
2022-11-01T05:44:58.962Z,12.10
2022-11-01T05:47:26.363Z,12.00
2022-11-01T05:49:53.742Z,12.10
2022-11-01T05:52:21.159Z,12.30
2022-11-01T05:54:48.561Z,12.30
2022-11-01T05:57:15.944Z,12.10
2022-11-01T05:59:43.376Z,12.00
2022-11-01T06:02:10.833Z,12.10
2022-11-01T06:04:38.344Z,12.10
2022-11-01T06:07:05.754Z,12.20
2022-11-01T06:09:33.138Z,12.40
2022-11-01T06:12:00.613Z,12.40
2022-11-01T06:14:28.324Z,12.40
2022-11-01T06:16:55.757Z,12.40
2022-11-01T06:19:23.205Z,12.30
2022-11-01T06:21:50.636Z,12.50
2022-11-01T06:24:18.099Z,12.60
2022-11-01T06:26:45.548Z,12.70
2022-11-01T06:29:12.971Z,12.70
2022-11-01T06:31:40.642Z,12.80
2022-11-01T06:34:08.029Z,12.80
2022-11-01T06:36:35.463Z,12.90
2022-11-01T06:39:02.887Z,12.90
2022-11-01T06:41:30.253Z,13.00
2022-11-01T06:43:57.703Z,13.00
2022-11-01T06:46:25.050Z,13.20
2022-11-01T06:48:52.434Z,13.30
2022-11-01T06:51:19.862Z,13.40
2022-11-01T06:53:47.283Z,13.50
2022-11-01T06:56:14.673Z,13.50
2022-11-01T06:58:42.097Z,13.60
2022-11-01T07:01:09.646Z,13.80
2022-11-01T07:03:37.241Z,14.00
2022-11-01T07:06:04.706Z,14.10
2022-11-01T07:08:32.243Z,14.10
2022-11-01T07:10:59.631Z,14.30
2022-11-01T07:13:27.029Z,14.40
2022-11-01T07:15:54.978Z,14.50
2022-11-01T07:18:22.530Z,14.50
2022-11-01T07:20:49.919Z,14.60
2022-11-01T07:23:17.665Z,14.60
2022-11-01T07:25:45.107Z,14.60
2022-11-01T07:28:12.553Z,14.60
2022-11-01T07:30:39.950Z,14.70
2022-11-01T07:33:07.474Z,14.70
2022-11-01T07:35:35.800Z,14.80
2022-11-01T07:38:06.444Z,15.00
2022-11-01T07:40:39.108Z,15.10
2022-11-01T07:43:06.772Z,15.10
2022-11-01T07:45:35.231Z,15.20
2022-11-01T07:48:04.348Z,15.20
2022-11-01T07:50:33.211Z,15.10
2022-11-01T07:53:01.581Z,15.00
2022-11-01T07:55:29.028Z,15.00
2022-11-01T07:57:56.571Z,15.00
2022-11-01T08:00:24.123Z,15.10
2022-11-01T08:02:51.633Z,15.10
2022-11-01T08:05:19.201Z,15.10
2022-11-01T08:07:46.626Z,15.20
2022-11-01T08:10:14.142Z,15.30
2022-11-01T08:12:41.495Z,15.30
2022-11-01T08:15:10.085Z,15.30
2022-11-01T08:17:37.742Z,15.30
2022-11-01T08:20:05.530Z,15.30
2022-11-01T08:22:33.366Z,15.20
2022-11-01T08:25:00.819Z,15.20
2022-11-01T08:27:30.337Z,15.40
2022-11-01T08:30:00.590Z,15.70
2022-11-01T08:32:28.065Z,15.60
2022-11-01T08:34:55.407Z,15.60
2022-11-01T08:37:22.868Z,15.60
2022-11-01T08:39:50.334Z,15.90
2022-11-01T08:42:17.751Z,16.00
2022-11-01T08:44:45.640Z,15.80
2022-11-01T08:47:13.103Z,15.90
2022-11-01T08:49:40.670Z,16.00
2022-11-01T08:52:08.283Z,16.10
2022-11-01T08:54:35.731Z,16.10
2022-11-01T08:57:03.557Z,15.90
2022-11-01T08:59:31.004Z,16.10
2022-11-01T09:01:58.860Z,16.30
2022-11-01T09:04:26.584Z,16.30
2022-11-01T09:06:54.252Z,16.40
2022-11-01T09:09:21.646Z,16.40
2022-11-01T09:11:49.152Z,16.60
2022-11-01T09:14:16.618Z,16.50
2022-11-01T09:16:44.035Z,16.60
2022-11-01T09:19:11.385Z,16.60
2022-11-01T09:21:38.805Z,16.70
2022-11-01T09:24:06.203Z,16.70
2022-11-01T09:26:33.841Z,16.80
2022-11-01T09:29:01.272Z,16.80
2022-11-01T09:31:28.812Z,17.00
2022-11-01T09:33:57.363Z,17.20
2022-11-01T09:36:25.247Z,17.40
2022-11-01T09:38:52.803Z,17.40
2022-11-01T09:41:29.866Z,17.40
2022-11-01T09:43:58.715Z,17.40
2022-11-01T09:46:28.346Z,17.50
2022-11-01T09:48:56.665Z,17.50
2022-11-01T09:51:24.711Z,17.40
2022-11-01T09:53:56.621Z,17.30
2022-11-01T09:56:30.081Z,17.30
2022-11-01T09:59:07.181Z,17.20
2022-11-01T10:01:41.558Z,17.30
2022-11-01T10:04:27.992Z,17.50
2022-11-01T10:07:02.231Z,17.60
2022-11-01T10:09:31.633Z,17.50
2022-11-01T10:12:18.124Z,17.30
2022-11-01T10:14:45.615Z,17.40
2022-11-01T10:17:17.358Z,17.60
2022-11-01T10:19:50.148Z,17.70
2022-11-01T10:22:35.306Z,17.70
2022-11-01T10:25:07.177Z,17.70
2022-11-01T10:27:53.680Z,17.80
2022-11-01T10:30:22.100Z,17.80
2022-11-01T10:33:03.069Z,17.80
2022-11-01T10:35:51.981Z,17.70
2022-11-01T10:38:35.220Z,17.90
2022-11-01T10:41:20.284Z,18.00
2022-11-01T10:43:49.248Z,17.90
2022-11-01T10:46:25.111Z,17.90
2022-11-01T10:48:55.505Z,17.90
2022-11-01T10:51:27.799Z,18.10
2022-11-01T10:53:57.592Z,18.00
2022-11-01T10:56:28.449Z,18.00
2022-11-01T10:58:55.876Z,18.00
2022-11-01T11:01:25.915Z,18.10
2022-11-01T11:03:55.094Z,18.00
2022-11-01T11:06:22.531Z,18.00
2022-11-01T11:08:51.669Z,18.10
2022-11-01T11:11:22.484Z,18.10
2022-11-01T11:13:52.927Z,18.10
2022-11-01T11:16:33.488Z,18.10
2022-11-01T11:19:20.170Z,18.20
2022-11-01T11:21:49.018Z,18.40
2022-11-01T11:24:24.183Z,18.50
2022-11-01T11:26:54.448Z,18.50
2022-11-01T11:29:34.413Z,18.40
2022-11-01T11:32:02.899Z,18.40
2022-11-01T11:34:32.150Z,18.40
2022-11-01T11:37:00.668Z,18.50
2022-11-01T11:39:29.377Z,18.50
2022-11-01T11:42:15.298Z,18.60
2022-11-01T11:44:50.635Z,18.60
2022-11-01T11:47:23.059Z,18.70
2022-11-01T11:49:54.302Z,18.70
2022-11-01T11:52:28.319Z,18.70
2022-11-01T11:54:56.221Z,18.70
2022-11-01T11:57:30.015Z,18.70
2022-11-01T12:00:00.547Z,18.80
2022-11-01T12:02:38.941Z,18.90
2022-11-01T12:05:08.865Z,18.80
2022-11-01T12:07:37.971Z,18.90
2022-11-01T12:10:06.648Z,18.80
2022-11-01T12:12:35.293Z,18.80
2022-11-01T12:15:04.015Z,18.80
2022-11-01T12:17:31.622Z,18.90
2022-11-01T12:20:00.436Z,19.20
2022-11-01T12:22:33.297Z,19.30
2022-11-01T12:25:03.982Z,19.40
2022-11-01T12:27:32.856Z,19.40
2022-11-01T12:30:16.055Z,19.40
2022-11-01T12:32:53.887Z,19.40
2022-11-01T12:35:23.592Z,19.40
2022-11-01T12:38:04.958Z,19.40
2022-11-01T12:40:43.279Z,19.50
2022-11-01T12:43:13.840Z,19.40
2022-11-01T12:45:57.376Z,19.40
2022-11-01T12:48:28.276Z,19.40
2022-11-01T12:51:01.063Z,19.40
2022-11-01T12:53:32.780Z,19.40
2022-11-01T12:56:00.306Z,19.60
2022-11-01T12:58:29.830Z,19.70
2022-11-01T13:01:01.253Z,20.10
2022-11-01T13:03:29.516Z,20.20
2022-11-01T13:06:15.710Z,20.10
2022-11-01T13:09:02.039Z,20.00
2022-11-01T13:11:29.473Z,20.10
2022-11-01T13:14:06.758Z,20.00
2022-11-01T13:16:36.968Z,19.90
2022-11-01T13:19:10.265Z,19.90
2022-11-01T13:21:40.604Z,19.70
2022-11-01T13:24:15.642Z,19.60
2022-11-01T13:26:46.234Z,19.80
2022-11-01T13:29:21.111Z,19.80
2022-11-01T13:32:04.337Z,19.70
2022-11-01T13:34:50.768Z,19.70
2022-11-01T13:37:37.005Z,19.60
2022-11-01T13:40:13.771Z,19.60
2022-11-01T13:42:41.356Z,19.50
2022-11-01T13:45:08.742Z,19.50
2022-11-01T13:47:41.756Z,19.60
2022-11-01T13:50:15.368Z,19.60
2022-11-01T13:52:49.019Z,19.60
2022-11-01T13:55:23.492Z,19.50
2022-11-01T13:57:51.045Z,19.60
2022-11-01T14:00:37.255Z,19.50
2022-11-01T14:03:18.183Z,19.50
2022-11-01T14:05:46.228Z,19.40
2022-11-01T14:08:27.375Z,19.50
2022-11-01T14:10:55.375Z,19.50
2022-11-01T14:13:33.826Z,19.40
2022-11-01T14:16:02.265Z,19.30
2022-11-01T14:18:49.543Z,19.40
2022-11-01T14:21:28.846Z,19.50
2022-11-01T14:23:59.061Z,19.50
2022-11-01T14:26:35.386Z,19.60
2022-11-01T14:29:04.034Z,19.40
2022-11-01T14:31:33.947Z,19.40
2022-11-01T14:34:02.183Z,19.30
2022-11-01T14:36:31.309Z,19.20
2022-11-01T14:38:58.767Z,19.30
2022-11-01T14:41:29.162Z,19.10
2022-11-01T14:44:08.147Z,19.00
2022-11-01T14:46:39.105Z,18.90
2022-11-01T14:49:28.602Z,18.90
2022-11-01T14:52:00.683Z,19.00
2022-11-01T14:54:35.025Z,18.90
2022-11-01T14:57:02.580Z,18.90
2022-11-01T14:59:33.808Z,18.80
2022-11-01T15:02:03.180Z,18.80
2022-11-01T15:04:32.513Z,18.80
2022-11-01T15:07:00.484Z,18.80
2022-11-01T15:09:30.089Z,18.80
2022-11-01T15:12:08.384Z,18.80
2022-11-01T15:14:39.037Z,18.80
2022-11-01T15:17:07.889Z,18.80
2022-11-01T15:19:38.177Z,19.00
2022-11-01T15:22:06.615Z,18.90
2022-11-01T15:24:34.840Z,18.90
2022-11-01T15:27:13.609Z,18.70
2022-11-01T15:29:42.395Z,18.60
2022-11-01T15:32:23.598Z,18.50
2022-11-01T15:34:52.638Z,18.50
2022-11-01T15:37:21.417Z,18.50
2022-11-01T15:39:49.661Z,18.40
2022-11-01T15:42:20.091Z,18.30
2022-11-01T15:44:47.892Z,18.40
2022-11-01T15:47:26.160Z,18.30
2022-11-01T15:50:05.488Z,18.30
2022-11-01T15:52:33.248Z,18.30
2022-11-01T15:55:03.698Z,18.40
2022-11-01T15:57:37.046Z,18.30
2022-11-01T16:00:06.896Z,18.20
2022-11-01T16:03:11.072Z,18.30
2022-11-01T16:05:44.793Z,18.50
2022-11-01T16:08:24.386Z,18.40
2022-11-01T16:10:51.961Z,18.20
2022-11-01T16:13:20.449Z,18.10
2022-11-01T16:16:05.608Z,18.10
2022-11-01T16:18:37.899Z,18.10
2022-11-01T16:21:07.366Z,18.20
2022-11-01T16:23:35.031Z,18.30
2022-11-01T16:26:07.370Z,18.30
2022-11-01T16:28:40.036Z,18.20
2022-11-01T16:31:26.950Z,18.20
2022-11-01T16:33:55.101Z,18.20
2022-11-01T16:36:26.734Z,18.20
2022-11-01T16:38:54.684Z,18.10
2022-11-01T16:41:36.394Z,18.00
2022-11-01T16:44:14.363Z,18.00
2022-11-01T16:46:41.821Z,17.90
2022-11-01T16:49:15.264Z,17.80
2022-11-01T16:51:42.681Z,17.70
2022-11-01T16:54:10.544Z,17.60
2022-11-01T16:56:40.254Z,17.60
2022-11-01T16:59:26.611Z,17.50
2022-11-01T17:01:55.839Z,17.60
2022-11-01T17:04:23.937Z,17.50
2022-11-01T17:06:52.389Z,17.40
2022-11-01T17:09:20.630Z,17.40
2022-11-01T17:11:51.861Z,17.30
2022-11-01T17:14:20.560Z,17.20
2022-11-01T17:16:49.799Z,17.30
2022-11-01T17:19:21.537Z,17.30
2022-11-01T17:21:49.567Z,17.30
2022-11-01T17:24:18.689Z,17.20
2022-11-01T17:26:46.439Z,17.20
2022-11-01T17:29:17.167Z,17.20
2022-11-01T17:31:44.655Z,17.20
2022-11-01T17:34:12.089Z,17.20
2022-11-01T17:36:41.358Z,17.10
2022-11-01T17:39:10.104Z,17.10
2022-11-01T17:41:37.767Z,17.20
2022-11-01T17:44:05.792Z,17.20
2022-11-01T17:46:33.322Z,17.10
2022-11-01T17:49:00.822Z,17.10
2022-11-01T17:51:28.323Z,17.10
2022-11-01T17:53:56.103Z,17.10
2022-11-01T17:56:24.194Z,17.10
2022-11-01T17:58:53.848Z,17.10
2022-11-01T18:01:21.827Z,17.20
2022-11-01T18:03:49.522Z,17.10
2022-11-01T18:06:17.107Z,17.00
2022-11-01T18:08:48.494Z,17.00
2022-11-01T18:11:16.012Z,16.90
2022-11-01T18:13:50.401Z,16.80
2022-11-01T18:16:24.554Z,16.90
2022-11-01T18:19:00.441Z,17.00
2022-11-01T18:21:32.685Z,17.00
2022-11-01T18:24:02.527Z,16.90
2022-11-01T18:26:30.103Z,17.00
2022-11-01T18:29:00.147Z,16.90
2022-11-01T18:31:31.903Z,16.90
2022-11-01T18:34:06.876Z,16.80
2022-11-01T18:36:40.369Z,16.70
2022-11-01T18:39:26.864Z,16.80
2022-11-01T18:41:54.809Z,16.70
2022-11-01T18:44:22.558Z,16.60
2022-11-01T18:46:59.372Z,16.60
2022-11-01T18:49:27.314Z,16.70
2022-11-01T18:51:55.582Z,16.70
2022-11-01T18:54:27.749Z,16.70
2022-11-01T18:57:02.574Z,16.60
2022-11-01T18:59:37.045Z,16.50
2022-11-01T19:02:22.066Z,16.40
2022-11-01T19:04:51.529Z,16.30
2022-11-01T19:07:23.868Z,16.10
2022-11-01T19:09:51.361Z,16.00
2022-11-01T19:12:28.221Z,16.00
2022-11-01T19:14:57.808Z,15.90
2022-11-01T19:17:26.449Z,15.90
2022-11-01T19:19:54.482Z,15.90
2022-11-01T19:22:39.678Z,15.90
2022-11-01T19:25:18.801Z,15.80
2022-11-01T19:27:48.118Z,15.70
2022-11-01T19:30:26.299Z,15.60
2022-11-01T19:32:54.617Z,15.80
2022-11-01T19:35:23.095Z,15.90
2022-11-01T19:37:55.737Z,15.90
2022-11-01T19:40:27.461Z,15.90
2022-11-01T19:42:57.570Z,16.00
2022-11-01T19:45:29.007Z,15.90
2022-11-01T19:47:58.343Z,15.90
2022-11-01T19:50:27.896Z,15.70
2022-11-01T19:52:56.954Z,15.80
2022-11-01T19:55:36.792Z,15.60
2022-11-01T19:58:25.234Z,15.50
2022-11-01T20:00:52.873Z,15.40
2022-11-01T20:03:26.636Z,15.60
2022-11-01T20:05:54.732Z,15.60
2022-11-01T20:08:23.103Z,15.60
2022-11-01T20:10:51.094Z,15.70
2022-11-01T20:13:18.826Z,15.60
2022-11-01T20:15:47.251Z,15.50
2022-11-01T20:18:14.788Z,15.50
2022-11-01T20:20:44.064Z,15.40
2022-11-01T20:23:27.473Z,15.10
2022-11-01T20:25:55.426Z,15.00
2022-11-01T20:28:23.074Z,15.20
2022-11-01T20:30:50.459Z,15.20
2022-11-01T20:33:17.902Z,15.20
2022-11-01T20:35:45.985Z,15.20
2022-11-01T20:38:13.787Z,15.20
2022-11-01T20:40:41.804Z,15.20
2022-11-01T20:43:09.414Z,15.00
2022-11-01T20:45:37.137Z,14.80
2022-11-01T20:48:07.547Z,14.60
2022-11-01T20:50:35.678Z,14.60
2022-11-01T20:53:05.065Z,14.90
2022-11-01T20:55:34.000Z,15.00
2022-11-01T20:58:01.806Z,15.10
2022-11-01T21:00:29.422Z,15.10
2022-11-01T21:02:57.884Z,15.00
2022-11-01T21:05:28.920Z,14.70
2022-11-01T21:07:58.638Z,14.50
2022-11-01T21:10:28.732Z,14.60
2022-11-01T21:12:56.507Z,14.70
2022-11-01T21:15:24.181Z,14.70
2022-11-01T21:18:11.793Z,14.70
2022-11-01T21:20:40.367Z,14.80
2022-11-01T21:23:28.527Z,14.60
2022-11-01T21:26:00.093Z,14.60
2022-11-01T21:28:28.144Z,14.50
2022-11-01T21:30:57.557Z,14.60
2022-11-01T21:33:32.192Z,14.60
2022-11-01T21:35:59.778Z,14.50
2022-11-01T21:38:32.268Z,14.60
2022-11-01T21:40:59.818Z,14.50
2022-11-01T21:43:31.870Z,14.60
2022-11-01T21:45:59.303Z,14.50
2022-11-01T21:48:28.929Z,14.30
2022-11-01T21:50:56.561Z,14.40
2022-11-01T21:53:23.949Z,14.40
2022-11-01T21:55:51.482Z,14.60
2022-11-01T21:58:20.318Z,14.60
2022-11-01T22:00:47.704Z,14.50
2022-11-01T22:03:15.120Z,14.50
2022-11-01T22:05:42.516Z,14.60
2022-11-01T22:08:09.964Z,14.50
2022-11-01T22:10:37.489Z,14.50
2022-11-01T22:13:07.005Z,14.40
2022-11-01T22:15:34.654Z,14.40
2022-11-01T22:18:02.068Z,14.30
2022-11-01T22:20:29.460Z,14.20
2022-11-01T22:22:56.967Z,14.20
2022-11-01T22:25:24.426Z,14.20
2022-11-01T22:27:51.880Z,14.00
2022-11-01T22:30:19.295Z,14.00
2022-11-01T22:32:46.738Z,14.00
2022-11-01T22:35:14.162Z,14.00
2022-11-01T22:37:41.787Z,13.90
2022-11-01T22:40:12.729Z,14.00
2022-11-01T22:42:40.711Z,14.20
2022-11-01T22:45:15.481Z,14.20
2022-11-01T22:47:43.135Z,14.30
2022-11-01T22:50:13.334Z,14.20
2022-11-01T22:52:43.510Z,14.20
2022-11-01T22:55:10.994Z,14.10
2022-11-01T22:57:41.393Z,14.10
2022-11-01T23:00:27.529Z,13.80
2022-11-01T23:02:58.536Z,13.70
2022-11-01T23:05:26.178Z,13.60
2022-11-01T23:07:57.810Z,13.50
2022-11-01T23:10:29.975Z,13.60
2022-11-01T23:13:35.832Z,13.70
2022-11-01T23:16:14.982Z,13.80
2022-11-01T23:18:43.485Z,13.50
2022-11-01T23:21:10.952Z,13.50
2022-11-01T23:23:42.532Z,13.60
2022-11-01T23:26:10.166Z,13.70
2022-11-01T23:28:41.949Z,13.50
2022-11-01T23:31:09.499Z,13.60
2022-11-01T23:33:40.269Z,13.70
2022-11-01T23:36:23.014Z,13.50
2022-11-01T23:38:54.152Z,13.40
2022-11-01T23:41:31.203Z,13.40
2022-11-01T23:43:59.562Z,13.50
2022-11-01T23:46:27.382Z,13.50
2022-11-01T23:49:11.392Z,13.50
2022-11-01T23:51:38.998Z,13.50
2022-11-01T23:54:08.864Z,13.50
2022-11-01T23:56:36.327Z,13.60
2022-11-01T23:59:04.489Z,13.60
